METAR AND TAF INFORMATION
METAR FOR KXSA
ADDS - METARS form results

(1533 UTC 20 January 2019)
Data provider http://aviationweather.gov/metar/data/
 
METAR text: KXSA 201515Z AUTO 28011G20KT 10SM SCT024 SCT033 BKN075 13/09 A2941 RMK AO2 T01330089
Conditions at: KXSA (TAPPAHANNOCK , VA, US) observed 1515 UTC 20 January 2019
Temperature: 13.3°C (56°F)
Dewpoint: 8.9°C (48°F) [RH = 75%]
Pressure (altimeter): 29.41 inches Hg (996.0 mb)
Winds: from the W (280 degrees) at 13 MPH (11 knots; 5.7 m/s)
gusting to 23 MPH (20 knots; 10.3 m/s)
Visibility: 10 or more miles (16+ km)
Ceiling: 7500 feet AGL
Clouds: scattered clouds at 2400 feet AGL
scattered clouds at 3300 feet AGL
broken clouds at 7500 feet AGL
Weather: automated observation with no human augmentation;
there may or may not be significant weather present at this time

METAR text: KXSA 201455Z AUTO 26010KT 240V310 10SM SCT018 SCT075 BKN085 14/10 A2938 RMK AO2 T01420103
Conditions at: KXSA (TAPPAHANNOCK , VA, US) observed 1455 UTC 20 January 2019
Temperature: 14.2°C (58°F)
Dewpoint: 10.3°C (51°F) [RH = 77%]
Pressure (altimeter): 29.38 inches Hg (995.0 mb)
Winds: from the W (260 degrees) at 12 MPH (10 knots; 5.1 m/s)
Visibility: 10 or more miles (16+ km)
Ceiling: 8500 feet AGL
Clouds: scattered clouds at 1800 feet AGL
scattered clouds at 7500 feet AGL
broken clouds at 8500 feet AGL
Weather: automated observation with no human augmentation;
there may or may not be significant weather present at this time

METAR text: KXSA 201435Z AUTO 25013G19KT 10SM SCT020 BKN075 15/11 A2936 RMK AO2 T01460112
Conditions at: KXSA (TAPPAHANNOCK , VA, US) observed 1435 UTC 20 January 2019
Temperature: 14.6°C (58°F)
Dewpoint: 11.2°C (52°F) [RH = 80%]
Pressure (altimeter): 29.36 inches Hg (994.3 mb)
Winds: from the WSW (250 degrees) at 15 MPH (13 knots; 6.7 m/s)
gusting to 22 MPH (19 knots; 9.8 m/s)
Visibility: 10 or more miles (16+ km)
Ceiling: 7500 feet AGL
Clouds: scattered clouds at 2000 feet AGL
broken clouds at 7500 feet AGL
Weather: automated observation with no human augmentation;
there may or may not be significant weather present at this time

 AIRPORT MAP

Esri Leaflet Quickstart
 RUNWAY INFORMATION
Runway 10 Runway length 4300 ft Runway width 75 ft
Runway elevation 135 ft Runway displaced threshold 0 ft Runway heading 86
Runway 28 Runway length 4300 ft Runway width 75 ft
Runway elevation 128 ft Runway displaced threshold 0 ft Runway heading 266

 AIRPORT FREQUENCIES

 AIRPORT NEAR NAVIGATION AIDS



Powered by Virtual Airlines Manager [v2.6.2]